Time;durP1;ratioP1;P1;durP2;ratioP2;P2;SDS_P1;SDS_P2;PMS_P1;PMS_P2;Temp;Humidity;BMP_temperature;BMP_pressure;BME280_temperature;BME280_humidity;BME280_pressure;Samples;Min_cycle;Max_cycle;Signal;HPM_P1;HPM_P2
2021/05/10 00:01:02;;;;;;;3.72;1.90;;;16.30;99.90;;;;;;5041584;28;20099;-67
2021/05/10 00:03:28;;;;;;;3.03;1.73;;;16.30;99.90;;;;;;5041143;28;20025;-68
2021/05/10 00:05:54;;;;;;;5.68;2.10;;;16.20;99.90;;;;;;5033736;28;20237;-68
2021/05/10 00:08:22;;;;;;;7.00;2.10;;;16.30;99.90;;;;;;5027288;28;20455;-68
2021/05/10 00:10:49;;;;;;;4.60;1.98;;;16.30;99.90;;;;;;5034065;28;20083;-68
2021/05/10 00:13:17;;;;;;;5.63;2.00;;;16.30;99.90;;;;;;5037307;28;20033;-68
2021/05/10 00:15:43;;;;;;;4.13;1.83;;;16.20;99.90;;;;;;5034452;28;20034;-68
2021/05/10 00:18:08;;;;;;;4.72;1.80;;;16.30;99.90;;;;;;5036886;28;20044;-68
2021/05/10 00:20:36;;;;;;;5.10;1.80;;;16.30;99.90;;;;;;5040531;28;20037;-67
2021/05/10 00:23:03;;;;;;;3.97;1.50;;;16.30;99.90;;;;;;5024553;28;20068;-68
2021/05/10 00:25:29;;;;;;;3.53;1.85;;;16.30;99.90;;;;;;5022447;28;20037;-67
2021/05/10 00:27:55;;;;;;;5.60;1.95;;;16.40;99.90;;;;;;5024475;28;20065;-68
2021/05/10 00:30:22;;;;;;;4.00;1.80;;;16.40;99.90;;;;;;5027226;28;20079;-68
2021/05/10 00:32:48;;;;;;;4.43;2.15;;;16.30;99.90;;;;;;5027421;28;20032;-68
2021/05/10 00:35:14;;;;;;;2.35;1.50;;;16.30;99.90;;;;;;5041435;28;20043;-68
2021/05/10 00:37:40;;;;;;;4.07;2.10;;;16.30;99.90;;;;;;5052163;28;20482;-68
2021/05/10 00:40:07;;;;;;;6.45;2.10;;;16.30;99.90;;;;;;5025683;28;20044;-68
2021/05/10 00:42:33;;;;;;;7.45;2.20;;;16.30;99.90;;;;;;5025702;28;20516;-68
2021/05/10 00:44:58;;;;;;;5.65;1.88;;;16.30;99.90;;;;;;5026747;28;20040;-67
2021/05/10 00:47:25;;;;;;;5.13;2.50;;;16.40;99.90;;;;;;5036136;28;20055;-68
2021/05/10 00:49:50;;;;;;;5.97;1.70;;;16.40;99.90;;;;;;5035540;28;20040;-68
2021/05/10 00:52:16;;;;;;;4.55;1.73;;;16.40;99.90;;;;;;5037163;28;20034;-68
2021/05/10 00:54:42;;;;;;;5.13;2.13;;;16.40;99.90;;;;;;5036703;28;20469;-68
2021/05/10 00:57:08;;;;;;;4.85;1.80;;;16.40;99.90;;;;;;5044858;28;20130;-67
2021/05/10 00:59:34;;;;;;;4.78;1.90;;;16.40;99.90;;;;;;5046575;28;20054;-68
2021/05/10 01:02:00;;;;;;;6.53;2.17;;;16.40;99.90;;;;;;5040208;28;20033;-68
2021/05/10 01:04:25;;;;;;;5.97;2.38;;;16.40;99.90;;;;;;5038848;28;20036;-68
2021/05/10 01:06:51;;;;;;;6.18;1.98;;;16.50;99.90;;;;;;5036936;28;20037;-67
2021/05/10 01:09:17;;;;;;;4.93;2.25;;;16.50;99.90;;;;;;5044296;28;20032;-67
2021/05/10 01:11:42;;;;;;;6.82;2.90;;;16.60;99.90;;;;;;5041256;28;20029;-67
2021/05/10 01:14:08;;;;;;;6.05;2.40;;;16.50;99.90;;;;;;5037477;28;20040;-68
2021/05/10 01:16:33;;;;;;;6.13;2.83;;;16.50;99.90;;;;;;5041607;28;20391;-67
2021/05/10 01:18:59;;;;;;;4.82;2.78;;;16.50;99.90;;;;;;5033983;28;20039;-68
2021/05/10 01:21:27;;;;;;;5.55;2.90;;;16.50;99.90;;;;;;5040869;28;20079;-68
2021/05/10 01:23:53;;;;;;;6.07;3.25;;;16.50;99.90;;;;;;5040837;28;20504;-68
2021/05/10 01:26:19;;;;;;;5.88;2.70;;;16.50;99.90;;;;;;5039688;28;20034;-68
2021/05/10 01:28:45;;;;;;;5.07;2.60;;;16.50;99.90;;;;;;5041041;28;20128;-68
2021/05/10 01:31:15;;;;;;;7.82;3.53;;;16.50;99.90;;;;;;5036634;28;20120;-68
2021/05/10 01:33:41;;;;;;;9.40;3.50;;;16.50;99.90;;;;;;5040852;28;20116;-67
2021/05/10 01:36:06;;;;;;;8.70;3.45;;;16.50;99.90;;;;;;5041139;28;20115;-67
2021/05/10 01:38:32;;;;;;;6.20;3.38;;;16.50;99.90;;;;;;5043376;28;20029;-67
2021/05/10 01:40:57;;;;;;;9.30;4.82;;;16.50;99.90;;;;;;5038431;28;20104;-69
2021/05/10 01:43:23;;;;;;;10.05;3.65;;;16.50;99.90;;;;;;5038532;28;20124;-68
2021/05/10 01:45:49;;;;;;;9.25;4.50;;;16.50;99.90;;;;;;5040980;28;20083;-68
2021/05/10 01:48:15;;;;;;;8.98;4.38;;;16.50;99.90;;;;;;5036019;28;20025;-68
2021/05/10 01:50:46;;;;;;;8.35;4.07;;;16.50;99.90;;;;;;5044929;28;20048;-68
2021/05/10 01:53:13;;;;;;;9.02;4.55;;;16.50;99.90;;;;;;5026949;28;20107;-68
2021/05/10 01:55:39;;;;;;;8.43;4.45;;;16.40;99.90;;;;;;5040498;28;20053;-68
2021/05/10 01:58:06;;;;;;;8.77;4.07;;;16.40;99.90;;;;;;5034226;28;20071;-68
2021/05/10 02:00:33;;;;;;;8.93;4.15;;;16.40;99.90;;;;;;5037344;28;20033;-68
2021/05/10 02:03:03;;;;;;;7.47;4.32;;;16.40;99.90;;;;;;5028929;28;20044;-68
2021/05/10 02:05:29;;;;;;;10.43;4.40;;;16.40;99.90;;;;;;5027523;28;20037;-68
2021/05/10 02:07:57;;;;;;;7.22;4.50;;;16.30;99.90;;;;;;5037567;28;20075;-68
2021/05/10 02:10:24;;;;;;;8.70;4.53;;;16.30;99.90;;;;;;5033407;28;20034;-68
2021/05/10 02:13:00;;;;;;;10.10;4.20;;;16.30;99.90;;;;;;5027230;28;20499;-68
2021/05/10 02:15:30;;;;;;;12.45;4.80;;;16.30;99.90;;;;;;5039229;28;20124;-69
2021/05/10 02:17:55;;;;;;;7.90;4.87;;;16.40;99.90;;;;;;5026254;28;20034;-68
2021/05/10 02:20:23;;;;;;;11.73;4.63;;;16.40;99.90;;;;;;5037817;28;20033;-68
2021/05/10 02:22:50;;;;;;;8.57;4.63;;;16.40;99.90;;;;;;5035081;28;20129;-68
2021/05/10 02:25:21;;;;;;;10.40;4.30;;;16.40;99.90;;;;;;5035152;28;20034;-68
2021/05/10 02:27:47;;;;;;;8.60;4.18;;;16.30;99.90;;;;;;5038184;28;20041;-67
2021/05/10 02:30:14;;;;;;;10.45;4.50;;;16.30;99.90;;;;;;5026548;28;20042;-68
2021/05/10 02:32:40;;;;;;;8.85;4.70;;;16.40;99.90;;;;;;5022508;28;20065;-68
2021/05/10 02:35:06;;;;;;;8.35;4.55;;;16.40;99.90;;;;;;5036059;28;20034;-68
2021/05/10 02:37:31;;;;;;;8.02;4.82;;;16.40;99.90;;;;;;5028206;28;20087;-68
2021/05/10 02:39:57;;;;;;;7.85;5.13;;;16.50;99.90;;;;;;5039381;28;20125;-68
2021/05/10 02:42:22;;;;;;;8.52;4.90;;;16.50;99.90;;;;;;5033273;28;20511;-68
2021/05/10 02:44:48;;;;;;;8.00;4.22;;;16.50;99.90;;;;;;5026464;28;20120;-68
2021/05/10 02:47:14;;;;;;;9.60;4.28;;;16.50;99.90;;;;;;5038812;28;20060;-68
2021/05/10 02:49:39;;;;;;;7.60;4.35;;;16.50;99.90;;;;;;5039448;28;20037;-68
2021/05/10 02:52:05;;;;;;;9.05;4.10;;;16.50;99.90;;;;;;5039532;28;20030;-69
2021/05/10 02:54:30;;;;;;;12.45;5.95;;;16.40;99.90;;;;;;5042281;28;20043;-68
2021/05/10 02:56:56;;;;;;;9.50;4.88;;;16.30;99.90;;;;;;5028073;28;20132;-68
2021/05/10 02:59:21;;;;;;;8.80;4.28;;;16.30;99.90;;;;;;5027235;28;20073;-68
2021/05/10 03:01:47;;;;;;;8.35;4.18;;;16.30;99.90;;;;;;5025163;28;20091;-68
2021/05/10 03:04:12;;;;;;;6.82;4.50;;;16.20;99.90;;;;;;5039829;28;20526;-67
2021/05/10 03:06:38;;;;;;;5.57;3.80;;;16.10;99.90;;;;;;5042832;28;20029;-68
2021/05/10 03:09:04;;;;;;;9.63;4.90;;;16.10;99.90;;;;;;5025085;28;20124;-68
2021/05/10 03:11:29;;;;;;;8.32;3.88;;;16.10;99.90;;;;;;5041947;28;20030;-68
2021/05/10 03:13:55;;;;;;;8.15;3.67;;;16.20;99.90;;;;;;5031664;28;20025;-68
2021/05/10 03:16:20;;;;;;;6.70;3.72;;;16.10;99.90;;;;;;5035939;28;20071;-68
2021/05/10 03:18:46;;;;;;;6.68;4.00;;;16.10;99.90;;;;;;5037196;28;20032;-68
2021/05/10 03:21:11;;;;;;;5.20;3.55;;;16.20;99.90;;;;;;5030400;28;20093;-68
2021/05/10 03:23:37;;;;;;;8.50;4.05;;;16.20;99.90;;;;;;5028482;28;20025;-68
2021/05/10 03:26:03;;;;;;;5.45;3.67;;;16.20;99.90;;;;;;5027921;28;20037;-68
2021/05/10 03:28:29;;;;;;;11.20;4.22;;;16.20;99.90;;;;;;5035089;28;20021;-68
2021/05/10 03:30:55;;;;;;;7.00;3.67;;;16.30;99.90;;;;;;5034147;28;20100;-68
2021/05/10 03:33:21;;;;;;;9.75;3.80;;;16.30;99.90;;;;;;5038830;28;20024;-68
2021/05/10 03:35:46;;;;;;;6.97;3.67;;;16.30;99.90;;;;;;5034739;28;20090;-69
2021/05/10 03:38:12;;;;;;;7.43;3.63;;;16.30;99.90;;;;;;5035907;28;20041;-68
2021/05/10 03:40:37;;;;;;;7.80;3.65;;;16.30;99.90;;;;;;5034367;28;20033;-68
2021/05/10 03:43:03;;;;;;;8.98;3.75;;;16.30;99.90;;;;;;5027787;28;20444;-68
2021/05/10 03:45:28;;;;;;;6.30;4.28;;;16.30;99.90;;;;;;5037966;28;20519;-68
2021/05/10 03:47:54;;;;;;;6.57;3.70;;;16.30;99.90;;;;;;5025632;28;20037;-68
2021/05/10 03:50:21;;;;;;;6.85;3.38;;;16.30;99.90;;;;;;5048848;28;20052;-69
2021/05/10 03:52:49;;;;;;;8.82;3.72;;;16.30;99.90;;;;;;5036536;28;20030;-67
2021/05/10 03:55:16;;;;;;;9.80;3.72;;;16.40;99.90;;;;;;5034481;28;20037;-68
2021/05/10 03:57:42;;;;;;;7.07;3.20;;;16.50;99.90;;;;;;5033963;28;20655;-68
2021/05/10 04:00:10;;;;;;;6.57;3.50;;;16.50;99.90;;;;;;5033671;28;20033;-68
2021/05/10 04:02:37;;;;;;;6.63;3.25;;;16.60;99.90;;;;;;5037366;28;20703;-68
2021/05/10 04:07:53;;;;;;;13.00;3.28;;;16.50;99.90;;;;;;5039262;28;20044;-67
2021/05/10 04:10:37;;;;;;;6.20;2.97;;;16.60;99.90;;;;;;5035441;28;20052;-65
2021/05/10 04:15:47;;;;;;;7.80;2.97;;;16.80;99.90;;;;;;5035537;28;20027;-66
2021/05/10 04:18:12;;;;;;;5.15;2.47;;;16.80;99.90;;;;;;5040341;28;20038;-66
2021/05/10 04:20:38;;;;;;;6.25;2.70;;;16.80;99.90;;;;;;5030223;28;20041;-66
2021/05/10 04:23:04;;;;;;;6.03;1.88;;;16.90;99.90;;;;;;5029332;28;20061;-66
2021/05/10 04:25:30;;;;;;;2.63;1.15;;;16.90;99.90;;;;;;5034249;28;20107;-66
2021/05/10 04:27:55;;;;;;;2.15;1.40;;;17.00;99.90;;;;;;5029603;28;20120;-67
2021/05/10 04:30:21;;;;;;;5.88;1.27;;;17.10;99.90;;;;;;5035053;28;20125;-66
2021/05/10 04:32:47;;;;;;;2.22;1.33;;;17.10;99.90;;;;;;5034828;28;20049;-66
2021/05/10 04:35:12;;;;;;;4.93;0.82;;;17.10;99.90;;;;;;5033217;28;20405;-65
2021/05/10 04:37:38;;;;;;;5.72;1.15;;;17.20;99.90;;;;;;5033530;28;20029;-66
2021/05/10 04:40:05;;;;;;;3.05;0.75;;;17.30;99.90;;;;;;5032021;28;20065;-66
2021/05/10 04:42:31;;;;;;;2.63;0.80;;;17.40;99.90;;;;;;5019544;28;20033;-65
2021/05/10 04:44:57;;;;;;;6.47;1.00;;;17.50;99.90;;;;;;5018063;28;20052;-67
2021/05/10 04:47:22;;;;;;;7.40;0.68;;;17.60;99.90;;;;;;5034930;28;20338;-66
2021/05/10 04:49:48;;;;;;;3.60;0.63;;;17.50;99.90;;;;;;5039724;28;20538;-68
2021/05/10 04:52:14;;;;;;;8.63;1.30;;;17.40;99.90;;;;;;5025589;28;20579;-66
2021/05/10 04:54:39;;;;;;;4.25;0.80;;;17.30;99.90;;;;;;5059126;28;20386;-66
2021/05/10 04:57:05;;;;;;;6.38;1.27;;;17.30;99.90;;;;;;5036142;28;20045;-67
2021/05/10 04:59:31;;;;;;;1.40;0.70;;;17.20;99.90;;;;;;5040875;28;20037;-66
2021/05/10 05:01:57;;;;;;;4.97;0.90;;;17.20;99.90;;;;;;5041329;28;20038;-67
2021/05/10 05:04:23;;;;;;;4.28;1.33;;;17.00;99.90;;;;;;5037940;28;20481;-66
2021/05/10 05:06:49;;;;;;;6.20;1.25;;;16.90;99.90;;;;;;5041380;28;20025;-66
2021/05/10 05:09:14;;;;;;;4.05;1.20;;;16.70;99.90;;;;;;5042916;28;20036;-66
2021/05/10 05:11:40;;;;;;;3.97;1.25;;;16.60;99.90;;;;;;5040659;28;20057;-67
2021/05/10 05:14:05;;;;;;;1.70;0.95;;;16.50;99.90;;;;;;5039461;28;20033;-65
2021/05/10 05:16:31;;;;;;;3.95;0.98;;;16.50;99.90;;;;;;5043627;28;20099;-68
2021/05/10 05:18:57;;;;;;;4.50;1.30;;;16.40;99.90;;;;;;5043051;28;20059;-68
2021/05/10 05:21:23;;;;;;;3.70;1.27;;;16.40;99.90;;;;;;5042389;28;20112;-66
2021/05/10 05:23:48;;;;;;;3.53;1.20;;;16.40;99.90;;;;;;5038634;28;20467;-74
2021/05/10 05:26:14;;;;;;;6.00;1.05;;;16.40;99.90;;;;;;5044675;28;20545;-67
2021/05/10 05:28:41;;;;;;;2.42;0.80;;;16.30;99.90;;;;;;5043525;28;20036;-65
2021/05/10 05:31:07;;;;;;;3.75;0.80;;;16.30;99.90;;;;;;5039968;28;20057;-67
2021/05/10 05:33:33;;;;;;;3.78;0.80;;;16.40;99.90;;;;;;5042034;28;20049;-64
2021/05/10 05:35:58;;;;;;;2.38;0.80;;;16.30;99.90;;;;;;5041468;28;20788;-68
2021/05/10 05:38:24;;;;;;;2.10;0.85;;;16.30;99.90;;;;;;5023501;28;20716;-68
2021/05/10 05:40:50;;;;;;;3.22;1.02;;;16.40;99.90;;;;;;5041455;28;20036;-67
2021/05/10 05:43:15;;;;;;;1.17;0.52;;;16.40;99.90;;;;;;5040869;28;20118;-66
2021/05/10 05:45:42;;;;;;;1.30;0.47;;;16.40;99.90;;;;;;5043451;28;20047;-67
2021/05/10 05:48:09;;;;;;;2.97;0.50;;;16.30;99.90;;;;;;5042869;28;20043;-66
2021/05/10 05:50:36;;;;;;;1.17;0.50;;;16.30;99.90;;;;;;5043911;28;20040;-67
2021/05/10 05:53:02;;;;;;;2.25;0.73;;;16.30;99.90;;;;;;5046208;28;20067;-67
2021/05/10 05:55:29;;;;;;;0.95;0.47;;;16.30;99.90;;;;;;5044792;28;20079;-68
2021/05/10 05:57:56;;;;;;;0.88;0.60;;;16.40;99.90;;;;;;5044547;28;20664;-68
2021/05/10 06:00:22;;;;;;;0.75;0.30;;;16.40;99.90;;;;;;5027460;28;20072;-67
2021/05/10 06:02:47;;;;;;;1.73;0.47;;;16.40;99.90;;;;;;5026026;28;20056;-68
2021/05/10 06:05:14;;;;;;;1.48;0.30;;;16.40;99.90;;;;;;5038733;28;20033;-68
2021/05/10 06:07:46;;;;;;;3.42;0.93;;;16.40;99.90;;;;;;5040730;28;20098;-67
2021/05/10 06:10:14;;;;;;;0.82;0.30;;;16.40;99.90;;;;;;5042124;28;20044;-67
2021/05/10 06:12:43;;;;;;;1.35;0.65;;;16.30;99.90;;;;;;5046268;28;20529;-69
2021/05/10 06:15:09;;;;;;;1.67;0.40;;;16.40;99.90;;;;;;5043548;28;20045;-66
2021/05/10 06:17:35;;;;;;;4.18;0.50;;;16.60;99.90;;;;;;5024204;28;20041;-67
2021/05/10 06:20:07;;;;;;;4.28;0.65;;;16.70;99.90;;;;;;5040559;28;20044;-69
2021/05/10 06:22:33;;;;;;;1.85;0.50;;;16.80;99.90;;;;;;5025550;28;20405;-68
2021/05/10 06:24:59;;;;;;;0.68;0.30;;;16.90;99.90;;;;;;5045915;28;20533;-67
2021/05/10 06:27:25;;;;;;;1.70;0.30;;;16.90;99.90;;;;;;5040798;28;20044;-67
2021/05/10 06:29:50;;;;;;;1.88;0.40;;;17.00;99.90;;;;;;5043145;28;20029;-68
2021/05/10 06:32:16;;;;;;;1.13;0.30;;;16.90;99.90;;;;;;5031052;28;20405;-67
2021/05/10 06:34:42;;;;;;;3.38;0.50;;;17.00;99.90;;;;;;5044381;28;20029;-68
2021/05/10 06:37:07;;;;;;;3.33;0.30;;;17.00;99.90;;;;;;5039770;28;20032;-68
2021/05/10 06:39:33;;;;;;;0.90;0.50;;;17.10;99.90;;;;;;5041474;28;20048;-68
2021/05/10 06:41:58;;;;;;;1.67;0.80;;;17.20;99.90;;;;;;5040270;28;20051;-67
2021/05/10 06:44:24;;;;;;;0.75;0.40;;;17.20;99.90;;;;;;5045291;28;20036;-68
2021/05/10 06:46:49;;;;;;;1.92;0.65;;;17.30;99.90;;;;;;5021047;28;20119;-67
2021/05/10 06:49:15;;;;;;;2.50;0.50;;;17.60;99.90;;;;;;5036834;28;20079;-66
2021/05/10 06:51:41;;;;;;;1.13;0.80;;;17.60;99.90;;;;;;5026126;28;20044;-68
2021/05/10 06:54:06;;;;;;;0.82;0.32;;;17.80;99.90;;;;;;5040220;28;20086;-68
2021/05/10 06:56:32;;;;;;;2.00;0.60;;;18.30;99.90;;;;;;5044280;28;20032;-66
2021/05/10 06:58:57;;;;;;;1.10;0.57;;;18.40;99.90;;;;;;5045881;28;20498;-68
2021/05/10 07:01:23;;;;;;;1.48;0.40;;;18.30;99.90;;;;;;5039845;28;20041;-68
2021/05/10 07:03:49;;;;;;;1.20;0.40;;;18.30;99.90;;;;;;5041950;28;20079;-65
2021/05/10 07:06:15;;;;;;;1.15;0.50;;;18.10;99.90;;;;;;5042541;28;20040;-67
2021/05/10 07:08:40;;;;;;;3.90;0.77;;;18.10;99.90;;;;;;5043996;28;20703;-69
2021/05/10 07:11:06;;;;;;;2.53;0.50;;;18.10;99.90;;;;;;5043526;28;20025;-68
2021/05/10 07:13:31;;;;;;;3.50;0.52;;;18.20;99.90;;;;;;5041258;28;20033;-68
2021/05/10 07:15:57;;;;;;;1.58;0.60;;;18.40;99.90;;;;;;5041855;28;20027;-66
2021/05/10 07:18:22;;;;;;;0.82;0.52;;;18.40;99.90;;;;;;5035006;28;20377;-64
2021/05/10 07:20:48;;;;;;;1.27;0.50;;;18.20;99.90;;;;;;5026493;28;20083;-67
2021/05/10 07:23:15;;;;;;;2.58;0.60;;;18.00;99.90;;;;;;5041031;28;20087;-68
2021/05/10 07:25:49;;;;;;;2.40;0.68;;;17.70;99.90;;;;;;5038232;28;20029;-67
2021/05/10 07:28:17;;;;;;;2.15;0.50;;;17.50;99.90;;;;;;5024855;28;20036;-69
2021/05/10 07:30:43;;;;;;;3.55;0.77;;;17.20;99.90;;;;;;5038618;28;20517;-67
2021/05/10 07:33:09;;;;;;;2.78;0.80;;;17.20;99.90;;;;;;5023467;28;20037;-68
2021/05/10 07:35:35;;;;;;;4.90;0.70;;;17.10;99.90;;;;;;5021914;28;20033;-67
2021/05/10 07:38:01;;;;;;;2.05;0.77;;;17.00;99.90;;;;;;5036951;28;20167;-65
2021/05/10 07:40:28;;;;;;;3.40;0.90;;;16.90;99.90;;;;;;5040502;28;20033;-68
2021/05/10 07:42:54;;;;;;;4.00;0.73;;;16.90;99.90;;;;;;5039794;28;20029;-68
2021/05/10 07:45:20;;;;;;;3.78;1.20;;;17.00;99.90;;;;;;5038744;28;20090;-66
2021/05/10 07:47:51;;;;;;;2.95;0.82;;;17.10;99.90;;;;;;5021276;28;20152;-67
2021/05/10 07:50:17;;;;;;;1.67;0.63;;;17.20;99.90;;;;;;5038246;28;20061;-66
2021/05/10 07:52:43;;;;;;;3.45;0.80;;;17.40;99.90;;;;;;5036546;28;20569;-67
2021/05/10 07:55:09;;;;;;;2.60;1.00;;;17.50;99.90;;;;;;5039164;28;20086;-68
2021/05/10 07:57:34;;;;;;;1.73;0.85;;;17.40;99.90;;;;;;5019574;28;20033;-66
2021/05/10 08:00:03;;;;;;;2.50;0.55;;;17.00;99.90;;;;;;5047101;28;20079;-68
2021/05/10 08:02:31;;;;;;;1.95;0.60;;;16.30;99.90;;;;;;5042000;28;20127;-69
2021/05/10 08:04:57;;;;;;;1.10;0.20;;;15.80;99.90;;;;;;5038890;28;20028;-68
2021/05/10 08:07:23;;;;;;;2.30;0.40;;;15.50;99.90;;;;;;5038768;28;20091;-64
2021/05/10 08:09:49;;;;;;;1.73;0.40;;;15.30;99.90;;;;;;5036550;28;20033;-68
2021/05/10 08:12:15;;;;;;;1.90;0.30;;;15.20;99.90;;;;;;5037373;28;20114;-66
2021/05/10 08:14:41;;;;;;;1.45;0.50;;;15.20;99.90;;;;;;5036860;28;20099;-67
2021/05/10 08:17:07;;;;;;;2.30;0.30;;;15.10;99.90;;;;;;5035471;28;20460;-67
2021/05/10 08:19:33;;;;;;;1.50;0.50;;;14.90;99.90;;;;;;5040783;28;20973;-65
2021/05/10 08:21:59;;;;;;;3.08;0.45;;;14.90;99.90;;;;;;5041369;28;20036;-66
2021/05/10 08:24:28;;;;;;;0.88;0.43;;;15.00;99.90;;;;;;5038482;28;20041;-66
2021/05/10 08:26:54;;;;;;;0.93;0.40;;;15.10;99.90;;;;;;5041674;28;20580;-68
2021/05/10 08:29:20;;;;;;;2.92;0.40;;;15.30;99.90;;;;;;5021867;28;20111;-68
2021/05/10 08:31:46;;;;;;;1.27;0.95;;;15.40;99.90;;;;;;5040201;28;20387;-67
2021/05/10 08:34:15;;;;;;;0.55;0.30;;;15.50;99.90;;;;;;5034483;28;20095;-68
2021/05/10 08:36:41;;;;;;;1.85;0.75;;;15.70;99.90;;;;;;5039139;28;20041;-67
2021/05/10 08:39:10;;;;;;;1.27;0.43;;;15.70;99.90;;;;;;5039107;28;20052;-69
2021/05/10 08:41:37;;;;;;;3.22;0.63;;;15.70;99.90;;;;;;5035169;28;20112;-69
2021/05/10 08:44:05;;;;;;;1.58;0.40;;;15.70;99.90;;;;;;5039103;28;20052;-66
2021/05/10 08:46:32;;;;;;;1.52;0.60;;;15.70;99.90;;;;;;5038852;28;20041;-68
2021/05/10 08:48:58;;;;;;;2.38;0.65;;;15.80;99.90;;;;;;5038251;28;20423;-68
2021/05/10 08:51:24;;;;;;;5.18;1.17;;;15.80;99.90;;;;;;5044278;28;20434;-68
2021/05/10 08:53:50;;;;;;;1.13;0.43;;;15.80;99.90;;;;;;5038376;28;20509;-64
2021/05/10 08:56:15;;;;;;;1.42;0.57;;;15.80;99.90;;;;;;5037202;28;20544;-68
2021/05/10 08:58:43;;;;;;;0.98;0.55;;;15.80;99.90;;;;;;5035705;28;20025;-68
2021/05/10 09:01:10;;;;;;;2.55;0.50;;;15.90;99.90;;;;;;5039239;28;20033;-71
2021/05/10 09:03:42;;;;;;;1.95;0.30;;;16.00;99.90;;;;;;5021804;28;20631;-69
2021/05/10 09:06:12;;;;;;;2.20;0.20;;;16.10;99.90;;;;;;5035198;28;20029;-65
2021/05/10 09:08:43;;;;;;;1.40;0.40;;;16.20;99.90;;;;;;5037695;28;20036;-69
2021/05/10 09:11:13;;;;;;;0.95;0.57;;;16.20;99.90;;;;;;5039884;28;20098;-68
2021/05/10 09:13:47;;;;;;;4.20;0.63;;;16.30;99.90;;;;;;5036318;28;20620;-67
2021/05/10 09:16:14;;;;;;;2.30;0.40;;;16.30;99.90;;;;;;5021029;28;20708;-68
2021/05/10 09:18:50;;;;;;;2.45;0.28;;;16.60;99.90;;;;;;5022549;28;20434;-67
2021/05/10 09:21:24;;;;;;;1.05;0.30;;;16.70;99.90;;;;;;5020705;28;20029;-69
2021/05/10 09:23:51;;;;;;;2.40;0.38;;;16.90;99.90;;;;;;5040261;28;20037;-69
2021/05/10 09:26:37;;;;;;;0.90;0.47;;;16.90;99.90;;;;;;5039506;28;20021;-67
2021/05/10 09:29:03;;;;;;;1.92;0.40;;;16.90;99.90;;;;;;5022077;28;20044;-69
2021/05/10 09:31:29;;;;;;;3.50;0.40;;;16.80;99.90;;;;;;5024566;28;20130;-69
2021/05/10 09:33:56;;;;;;;3.85;0.30;;;16.80;99.90;;;;;;5043483;28;20490;-67
2021/05/10 09:36:40;;;;;;;0.85;0.30;;;16.80;99.90;;;;;;5043373;28;20082;-69
2021/05/10 09:39:08;;;;;;;0.93;0.20;;;16.60;99.90;;;;;;5020014;28;20748;-68
2021/05/10 09:41:34;;;;;;;0.60;0.20;;;16.60;99.90;;;;;;5041752;28;20036;-69
2021/05/10 09:44:05;;;;;;;2.17;0.47;;;16.40;99.90;;;;;;5043647;28;20033;-69
2021/05/10 09:47:01;;;;;;;2.88;0.50;;;16.40;99.90;;;;;;5038308;28;20138;-68
2021/05/10 09:49:45;;;;;;;4.40;0.45;;;16.40;99.90;;;;;;5037599;28;20033;-68
2021/05/10 09:52:24;;;;;;;3.38;0.50;;;16.30;99.90;;;;;;5022452;28;20025;-69
2021/05/10 09:54:58;;;;;;;1.98;0.40;;;16.30;99.90;;;;;;5037600;28;20033;-67
2021/05/10 09:57:24;;;;;;;1.40;0.73;;;16.20;99.90;;;;;;5041673;28;20041;-66
2021/05/10 10:00:17;;;;;;;3.80;0.43;;;16.10;99.90;;;;;;5039017;28;20044;-68
2021/05/10 10:02:43;;;;;;;3.70;0.43;;;16.20;99.90;;;;;;5043619;28;20068;-68
2021/05/10 10:05:09;;;;;;;3.65;0.63;;;16.20;99.90;;;;;;5043083;28;20100;-66
2021/05/10 10:07:38;;;;;;;3.45;0.80;;;16.10;99.90;;;;;;5022170;28;20029;-64
2021/05/10 10:10:05;;;;;;;6.32;0.90;;;16.00;99.90;;;;;;5024414;28;20036;-68
2021/05/10 10:12:32;;;;;;;4.03;1.10;;;16.00;99.90;;;;;;5041063;28;20152;-67
2021/05/10 10:14:57;;;;;;;2.95;1.05;;;16.10;99.90;;;;;;5042221;28;20075;-68
2021/05/10 10:17:24;;;;;;;3.70;1.27;;;16.20;99.90;;;;;;5043295;28;20139;-64
2021/05/10 10:19:52;;;;;;;5.32;1.67;;;16.20;99.90;;;;;;5042523;28;20029;-66
2021/05/10 10:22:20;;;;;;;7.22;2.33;;;16.30;99.90;;;;;;5022105;28;20061;-67
2021/05/10 10:24:48;;;;;;;5.93;2.20;;;16.20;99.90;;;;;;5042727;28;20666;-67
2021/05/10 10:27:15;;;;;;;3.85;1.73;;;16.10;99.90;;;;;;5021048;28;20037;-69
2021/05/10 10:29:42;;;;;;;6.45;2.13;;;16.10;99.90;;;;;;5033315;28;20080;-67
2021/05/10 10:32:10;;;;;;;5.60;2.00;;;16.30;99.90;;;;;;5024687;28;20164;-66
2021/05/10 10:34:45;;;;;;;5.68;1.77;;;16.30;99.90;;;;;;5038943;28;20033;-65
2021/05/10 10:37:12;;;;;;;5.18;2.33;;;16.20;99.90;;;;;;5041355;28;20037;-66
2021/05/10 10:39:49;;;;;;;4.82;2.08;;;16.30;99.90;;;;;;5035351;28;20124;-68
2021/05/10 10:42:29;;;;;;;5.47;2.13;;;16.10;99.90;;;;;;5040967;28;20044;-67
2021/05/10 10:44:59;;;;;;;;;;;16.00;99.90;;;;;;5041086;28;20047;-66
2021/05/10 10:47:44;;;;;;;3.00;1.63;;;15.90;99.90;;;;;;5021030;28;19951;-67
2021/05/10 10:50:18;;;;;;;6.82;1.98;;;15.90;99.90;;;;;;5040616;28;20087;-66
2021/05/10 10:52:48;;;;;;;4.10;2.03;;;15.80;99.90;;;;;;5041644;28;20488;-66
2021/05/10 10:55:18;;;;;;;;;;;15.50;99.90;;;;;;5036495;28;20068;-66
2021/05/10 10:57:45;;;;;;;4.90;1.05;;;15.30;99.90;;;;;;5024547;28;20712;-66
2021/05/10 11:00:15;;;;;;;6.15;1.48;;;15.20;99.90;;;;;;5038281;28;20041;-66
2021/05/10 11:02:53;;;;;;;3.30;1.08;;;15.10;99.90;;;;;;5034551;28;20043;-66
2021/05/10 11:05:24;;;;;;;3.08;1.17;;;15.10;99.90;;;;;;5021925;28;20037;-67
2021/05/10 11:07:50;;;;;;;3.92;1.05;;;15.10;99.90;;;;;;5035047;28;20498;-67
2021/05/10 11:10:44;;;;;;;4.03;0.95;;;15.40;99.90;;;;;;5041105;28;20887;-68
2021/05/10 11:13:29;;;;;;;1.90;0.82;;;15.60;99.90;;;;;;5041057;28;20033;-67
2021/05/10 11:15:58;;;;;;;5.65;1.13;;;15.80;99.90;;;;;;5021014;28;20502;-68
2021/05/10 11:18:52;;;;;;;3.45;1.15;;;16.10;99.90;;;;;;5038949;28;20045;-67
2021/05/10 11:21:25;;;;;;;6.25;1.33;;;16.50;99.90;;;;;;5041447;28;20099;-67
2021/05/10 11:23:52;;;;;;;2.25;0.90;;;16.80;99.90;;;;;;5025410;28;20636;-67
2021/05/10 11:26:39;;;;;;;2.05;0.80;;;17.00;99.90;;;;;;5038529;28;20029;-67
2021/05/10 11:29:06;;;;;;;5.03;1.50;;;17.10;99.90;;;;;;5038649;28;20033;-68
2021/05/10 11:31:37;;;;;;;5.43;1.00;;;17.40;99.90;;;;;;5041174;28;20143;-67
2021/05/10 11:34:06;;;;;;;1.73;0.80;;;17.60;99.90;;;;;;5019632;28;20032;-68
2021/05/10 11:36:38;;;;;;;2.80;1.02;;;17.70;99.90;;;;;;5039992;28;20075;-67
2021/05/10 11:39:08;;;;;;;1.75;0.85;;;17.70;99.90;;;;;;5039074;28;20033;-69
2021/05/10 11:41:42;;;;;;;3.15;0.93;;;17.70;99.90;;;;;;5039415;28;20124;-68
2021/05/10 11:44:09;;;;;;;2.88;0.98;;;17.80;99.90;;;;;;5035712;28;20033;-67
2021/05/10 11:46:44;;;;;;;2.97;0.82;;;17.90;99.90;;;;;;5024036;28;20094;-67
2021/05/10 11:49:21;;;;;;;5.60;1.65;;;18.00;99.90;;;;;;5039955;28;20651;-68
2021/05/10 11:51:47;;;;;;;3.38;1.10;;;18.30;99.90;;;;;;5031865;28;20485;-68
2021/05/10 11:54:13;;;;;;;4.30;1.27;;;18.50;99.90;;;;;;5040186;28;20048;-67
2021/05/10 11:56:41;;;;;;;2.40;0.82;;;18.50;99.90;;;;;;5038460;28;20032;-67
2021/05/10 11:59:33;;;;;;;3.60;1.10;;;18.60;99.90;;;;;;5038428;28;20082;-69
2021/05/10 12:02:09;;;;;;;3.85;1.35;;;18.70;99.90;;;;;;5035920;28;20030;-68
2021/05/10 12:04:41;;;;;;;3.97;1.40;;;18.60;99.90;;;;;;5040510;28;20056;-68
2021/05/10 12:07:07;;;;;;;3.53;1.13;;;18.50;99.90;;;;;;5038040;28;20051;-68
2021/05/10 12:09:46;;;;;;;4.25;0.82;;;18.40;99.90;;;;;;5037807;28;20029;-70
2021/05/10 12:12:18;;;;;;;3.58;1.48;;;18.50;99.90;;;;;;5039156;28;20064;-71
2021/05/10 12:14:47;;;;;;;2.67;0.80;;;18.60;99.90;;;;;;5023495;28;20629;-70
2021/05/10 12:17:15;;;;;;;3.55;1.00;;;18.70;99.90;;;;;;5044599;28;20036;-74
2021/05/10 12:19:54;;;;;;;3.70;1.30;;;19.00;99.90;;;;;;5039880;28;20131;-69
2021/05/10 12:22:25;;;;;;;4.53;1.27;;;19.20;99.90;;;;;;5041017;28;20118;-69
2021/05/10 12:25:02;;;;;;;4.60;1.52;;;19.10;99.90;;;;;;5039113;28;20040;-69
2021/05/10 12:27:51;;;;;;;5.20;1.45;;;18.90;99.90;;;;;;5036810;28;20080;-70
2021/05/10 12:30:25;;;;;;;3.42;1.17;;;18.80;99.90;;;;;;5014764;28;20812;-70
2021/05/10 12:32:54;;;;;;;3.63;1.10;;;18.60;99.90;;;;;;5039988;28;20565;-68
2021/05/10 12:35:26;;;;;;;6.10;1.30;;;18.40;99.90;;;;;;5041949;28;20056;-67
2021/05/10 12:37:53;;;;;;;4.95;1.52;;;18.20;99.90;;;;;;5021132;28;20043;-68
2021/05/10 12:40:24;;;;;;;3.97;1.42;;;17.90;99.90;;;;;;5024018;28;20573;-69
2021/05/10 12:43:10;;;;;;;2.83;1.45;;;17.90;99.90;;;;;;5041512;28;20036;-68
2021/05/10 12:45:43;;;;;;;2.70;1.30;;;17.90;99.90;;;;;;5037059;28;20037;-68
2021/05/10 12:48:22;;;;;;;4.10;1.40;;;18.00;99.90;;;;;;5038841;28;20127;-68
2021/05/10 12:50:50;;;;;;;6.82;1.30;;;18.20;99.90;;;;;;5039945;28;20044;-68
2021/05/10 12:53:32;;;;;;;4.28;1.50;;;18.30;99.90;;;;;;5043141;28;20037;-69
2021/05/10 12:56:00;;;;;;;3.78;1.65;;;18.50;99.90;;;;;;5046605;28;20036;-69
2021/05/10 12:58:26;;;;;;;3.45;1.38;;;18.90;99.90;;;;;;5027868;28;20052;-68